createdAt,value
2023-04-27T00:02:43.012Z,4.43
2023-04-27T00:05:46.467Z,6.97
2023-04-27T00:08:49.386Z,5.50
2023-04-27T00:11:51.904Z,7.85
2023-04-27T00:14:54.407Z,5.07
2023-04-27T00:17:57.673Z,6.72
2023-04-27T00:21:00.444Z,3.30
2023-04-27T00:24:03.466Z,4.80
2023-04-27T00:27:05.923Z,3.90
2023-04-27T00:30:09.140Z,4.88
2023-04-27T00:33:11.966Z,5.25
2023-04-27T00:36:16.494Z,6.30
2023-04-27T00:39:18.980Z,6.30
2023-04-27T00:42:21.647Z,4.85
2023-04-27T00:45:26.981Z,5.10
2023-04-27T00:48:30.004Z,5.00
2023-04-27T00:51:32.507Z,9.10
2023-04-27T00:54:34.993Z,5.15
2023-04-27T00:57:37.569Z,5.15
2023-04-27T01:00:41.018Z,7.40
2023-04-27T01:03:44.176Z,6.57
2023-04-27T01:06:46.778Z,4.80
2023-04-27T01:09:49.444Z,6.80
2023-04-27T01:12:52.111Z,4.75
2023-04-27T01:15:54.610Z,5.07
2023-04-27T01:18:57.569Z,5.17
2023-04-27T01:22:00.445Z,5.05
2023-04-27T01:25:03.086Z,5.75
2023-04-27T01:28:06.904Z,6.63
2023-04-27T01:31:11.488Z,5.77
2023-04-27T01:34:14.019Z,7.57
2023-04-27T01:37:16.524Z,12.48
2023-04-27T01:40:19.217Z,7.28
2023-04-27T01:43:21.723Z,6.43
2023-04-27T01:46:24.467Z,5.25
2023-04-27T01:49:27.787Z,5.78
2023-04-27T01:52:31.963Z,7.38
2023-04-27T01:55:34.504Z,4.33
2023-04-27T01:58:37.927Z,8.45
2023-04-27T02:01:41.019Z,5.10
2023-04-27T02:04:45.247Z,5.85
2023-04-27T02:07:48.833Z,6.13
2023-04-27T02:10:51.398Z,8.98
2023-04-27T02:13:54.125Z,8.18
2023-04-27T02:17:06.885Z,4.68
2023-04-27T02:20:11.021Z,5.13
2023-04-27T02:23:13.795Z,7.13
2023-04-27T02:26:19.603Z,5.30
2023-04-27T02:29:22.458Z,4.77
2023-04-27T02:32:25.257Z,5.63
2023-04-27T02:35:28.068Z,4.43
2023-04-27T02:38:30.660Z,4.63
2023-04-27T02:41:33.306Z,5.67
2023-04-27T02:44:35.841Z,5.47
2023-04-27T02:47:38.476Z,5.25
2023-04-27T02:50:43.163Z,5.00
2023-04-27T02:53:45.845Z,5.53
2023-04-27T02:56:48.339Z,8.73
2023-04-27T02:59:51.052Z,7.13
2023-04-27T03:02:53.756Z,8.70
2023-04-27T03:05:56.560Z,4.78
2023-04-27T03:08:59.944Z,9.47
2023-04-27T03:12:04.421Z,6.75
2023-04-27T03:15:07.874Z,7.30
2023-04-27T03:18:11.997Z,5.67
2023-04-27T03:21:17.150Z,6.47
2023-04-27T03:24:19.624Z,7.93
2023-04-27T03:27:22.120Z,6.38
2023-04-27T03:30:26.311Z,8.07
2023-04-27T03:33:29.777Z,5.57
2023-04-27T03:36:32.392Z,6.43
2023-04-27T03:39:34.954Z,6.43
2023-04-27T03:42:37.828Z,5.73
2023-04-27T03:45:40.518Z,8.88
2023-04-27T03:48:44.042Z,4.45
2023-04-27T03:51:46.756Z,8.85
2023-04-27T03:54:50.867Z,6.97
2023-04-27T03:57:54.181Z,5.55
2023-04-27T04:00:57.365Z,5.68
2023-04-27T04:04:00.316Z,5.78
2023-04-27T04:07:03.215Z,8.33
2023-04-27T04:10:07.045Z,6.30
2023-04-27T04:13:09.623Z,5.80
2023-04-27T04:16:13.733Z,5.63
2023-04-27T04:19:16.740Z,6.90
2023-04-27T04:22:19.435Z,5.00
2023-04-27T04:25:22.025Z,9.52
2023-04-27T04:28:25.040Z,9.60
2023-04-27T04:31:27.877Z,8.10
2023-04-27T04:34:30.488Z,7.57
2023-04-27T04:37:35.549Z,8.57
2023-04-27T04:40:39.476Z,8.75
2023-04-27T04:43:42.317Z,7.10
2023-04-27T04:46:45.065Z,9.80
2023-04-27T04:49:47.704Z,5.82
2023-04-27T04:52:50.336Z,7.97
2023-04-27T04:55:52.835Z,6.40
2023-04-27T04:58:55.697Z,5.47
2023-04-27T05:01:58.308Z,4.93
2023-04-27T05:05:00.992Z,6.47
2023-04-27T05:08:03.585Z,6.93
2023-04-27T05:11:06.279Z,3.07
2023-04-27T05:14:08.743Z,6.30
2023-04-27T05:17:11.134Z,9.15
2023-04-27T05:20:16.202Z,8.82
2023-04-27T05:23:18.891Z,6.53
2023-04-27T05:26:21.405Z,7.80
2023-04-27T05:29:24.082Z,11.47
2023-04-27T05:32:26.944Z,7.18
2023-04-27T05:35:30.497Z,7.15
2023-04-27T05:38:34.883Z,7.75
2023-04-27T05:41:37.821Z,14.10
2023-04-27T05:44:41.136Z,7.87
2023-04-27T05:47:44.039Z,6.60
2023-04-27T05:50:46.877Z,4.55
2023-04-27T05:53:49.673Z,7.68
2023-04-27T05:56:52.390Z,8.30
2023-04-27T05:59:54.958Z,6.63
2023-04-27T06:02:58.102Z,6.85
2023-04-27T06:06:02.724Z,6.53
2023-04-27T06:09:05.426Z,5.30
2023-04-27T06:12:09.126Z,8.50
2023-04-27T06:15:11.826Z,10.17
2023-04-27T06:18:14.762Z,8.20
2023-04-27T06:21:17.834Z,4.85
2023-04-27T06:24:20.779Z,7.47
2023-04-27T06:27:23.322Z,5.30
2023-04-27T06:30:26.194Z,6.73
2023-04-27T06:33:31.440Z,4.90
2023-04-27T06:36:33.979Z,6.25
2023-04-27T06:39:37.060Z,7.18
2023-04-27T06:42:39.647Z,5.80
2023-04-27T06:45:42.897Z,3.80
2023-04-27T06:48:45.565Z,7.47
2023-04-27T06:51:49.110Z,6.28
2023-04-27T06:54:51.851Z,6.45
2023-04-27T06:57:54.480Z,6.77
2023-04-27T07:00:57.115Z,6.93
2023-04-27T07:03:59.899Z,8.90
2023-04-27T07:07:02.677Z,6.03
2023-04-27T07:10:05.974Z,15.95
2023-04-27T07:13:09.620Z,4.47
2023-04-27T07:16:13.104Z,4.07
2023-04-27T07:19:15.896Z,4.15
2023-04-27T07:22:18.739Z,4.93
2023-04-27T07:25:21.656Z,3.83
2023-04-27T07:28:24.911Z,6.40
2023-04-27T07:31:28.100Z,3.40
2023-04-27T07:34:41.121Z,7.68
2023-04-27T07:37:52.267Z,4.10
2023-04-27T07:40:54.950Z,5.85
2023-04-27T07:43:58.111Z,6.47
2023-04-27T07:47:03.646Z,6.50
2023-04-27T07:50:10.623Z,5.43
2023-04-27T07:53:13.798Z,4.05
2023-04-27T07:56:16.432Z,3.53
2023-04-27T07:59:19.092Z,4.17
2023-04-27T08:02:22.189Z,2.80
2023-04-27T08:05:25.918Z,2.25
2023-04-27T08:08:29.645Z,4.95
2023-04-27T08:11:32.343Z,3.13
2023-04-27T08:14:35.727Z,3.27
2023-04-27T08:17:41.029Z,6.10
2023-04-27T08:20:43.971Z,3.25
2023-04-27T08:23:46.632Z,3.95
2023-04-27T08:26:49.234Z,2.58
2023-04-27T08:29:52.042Z,3.83
2023-04-27T08:32:54.836Z,1.90
2023-04-27T08:35:57.609Z,1.88
2023-04-27T08:39:00.687Z,3.28
2023-04-27T08:42:11.745Z,3.38
2023-04-27T08:45:14.412Z,6.40
2023-04-27T08:48:17.353Z,4.67
2023-04-27T08:51:21.604Z,3.08
2023-04-27T08:54:24.205Z,2.47
2023-04-27T08:57:26.748Z,1.80
2023-04-27T09:00:43.181Z,2.17
2023-04-27T09:03:47.230Z,2.47
2023-04-27T09:06:52.993Z,2.13
2023-04-27T09:10:05.778Z,2.75
2023-04-27T09:13:08.682Z,1.67
2023-04-27T09:16:16.320Z,3.53
2023-04-27T09:19:28.660Z,6.27
2023-04-27T09:22:31.482Z,3.85
2023-04-27T09:25:34.169Z,2.05
2023-04-27T09:28:40.456Z,1.77
2023-04-27T09:31:43.469Z,5.87
2023-04-27T09:34:46.742Z,1.87
2023-04-27T09:37:52.834Z,1.58
2023-04-27T09:40:56.726Z,2.92
2023-04-27T09:44:01.109Z,2.05
2023-04-27T09:47:04.987Z,4.40
2023-04-27T09:50:09.397Z,10.07
2023-04-27T09:53:15.881Z,2.80
2023-04-27T09:56:52.506Z,2.30
2023-04-27T09:59:55.242Z,1.92
2023-04-27T10:03:24.045Z,3.67
2023-04-27T10:06:56.487Z,2.13
2023-04-27T10:10:04.964Z,3.90
2023-04-27T10:13:07.690Z,2.30
2023-04-27T10:16:17.895Z,2.33
2023-04-27T10:19:22.028Z,2.03
2023-04-27T10:22:37.571Z,2.47
2023-04-27T10:25:42.077Z,2.83
2023-04-27T10:28:49.407Z,2.42
2023-04-27T10:32:07.110Z,1.67
2023-04-27T10:35:09.755Z,4.07
2023-04-27T10:38:17.521Z,3.03
2023-04-27T10:41:20.940Z,2.35
2023-04-27T10:44:29.484Z,4.47
2023-04-27T10:47:43.409Z,1.58
2023-04-27T10:50:46.982Z,4.03
2023-04-27T10:53:52.883Z,2.23
2023-04-27T10:57:06.770Z,1.98
2023-04-27T11:00:16.328Z,2.33
2023-04-27T11:03:21.731Z,2.80
2023-04-27T11:06:25.142Z,4.67
2023-04-27T11:09:28.171Z,1.43
2023-04-27T11:12:32.489Z,1.65
2023-04-27T11:15:52.853Z,1.85
2023-04-27T11:18:55.875Z,2.35
2023-04-27T11:22:07.369Z,3.33
2023-04-27T11:25:11.513Z,3.63
2023-04-27T11:28:19.093Z,2.95
2023-04-27T11:31:22.540Z,4.63
2023-04-27T11:34:26.855Z,3.28
2023-04-27T11:37:31.992Z,2.40
2023-04-27T11:40:36.072Z,3.37
2023-04-27T11:43:43.530Z,3.15
2023-04-27T11:46:47.644Z,3.58
2023-04-27T11:49:52.856Z,3.90
2023-04-27T11:53:01.448Z,2.57
2023-04-27T11:56:06.386Z,2.13
2023-04-27T11:59:27.698Z,2.90
2023-04-27T12:02:32.034Z,3.13
2023-04-27T12:05:35.724Z,3.55
2023-04-27T12:08:39.035Z,3.80
2023-04-27T12:11:41.853Z,2.07
2023-04-27T12:14:47.269Z,2.22
2023-04-27T12:17:51.197Z,4.07
2023-04-27T12:20:54.541Z,6.82
2023-04-27T12:23:57.706Z,3.13
2023-04-27T12:27:01.116Z,2.90
2023-04-27T12:30:04.725Z,3.95
2023-04-27T12:33:11.264Z,3.92
2023-04-27T12:36:14.098Z,5.78
2023-04-27T12:39:25.608Z,5.40
2023-04-27T12:42:29.037Z,2.37
2023-04-27T12:45:32.023Z,3.42
2023-04-27T12:48:35.540Z,6.20
2023-04-27T12:51:38.832Z,4.13
2023-04-27T12:54:41.770Z,5.57
2023-04-27T12:57:44.502Z,5.50
2023-04-27T13:00:47.177Z,6.05
2023-04-27T13:03:51.912Z,2.80
2023-04-27T13:06:54.510Z,5.10
2023-04-27T13:09:57.283Z,3.23
2023-04-27T13:13:00.267Z,4.47
2023-04-27T13:19:07.120Z,3.05
2023-04-27T13:22:13.670Z,2.72
2023-04-27T13:25:17.989Z,3.37
2023-04-27T13:28:20.579Z,3.97
2023-04-27T13:31:23.824Z,2.70
2023-04-27T13:34:26.797Z,4.30
2023-04-27T13:37:29.952Z,5.85
2023-04-27T13:40:32.685Z,5.03
2023-04-27T13:43:35.732Z,2.63
2023-04-27T13:46:38.737Z,4.10
2023-04-27T13:49:41.610Z,2.85
2023-04-27T13:52:44.156Z,3.08
2023-04-27T13:55:47.096Z,3.53
2023-04-27T13:58:49.597Z,4.03
2023-04-27T14:01:53.169Z,3.22
2023-04-27T14:04:56.817Z,1.80
2023-04-27T14:07:59.525Z,4.90
2023-04-27T14:11:03.272Z,3.05
2023-04-27T14:14:06.873Z,3.30
2023-04-27T14:17:09.564Z,2.33
2023-04-27T14:20:12.780Z,2.50
2023-04-27T14:23:15.451Z,5.85
2023-04-27T14:26:18.054Z,6.15
2023-04-27T14:29:20.793Z,5.60
2023-04-27T14:32:23.511Z,4.35
2023-04-27T14:35:28.152Z,3.00
2023-04-27T14:38:30.675Z,2.55
2023-04-27T14:41:33.357Z,4.93
2023-04-27T14:44:36.848Z,3.70
2023-04-27T14:47:39.559Z,4.78
2023-04-27T14:50:42.362Z,3.42
2023-04-27T14:53:45.063Z,3.13
2023-04-27T14:56:48.084Z,2.78
2023-04-27T14:59:50.746Z,3.67
2023-04-27T15:02:53.750Z,1.95
2023-04-27T15:05:56.512Z,3.67
2023-04-27T15:08:59.048Z,3.47
2023-04-27T15:12:03.450Z,3.65
2023-04-27T15:15:08.818Z,2.57
2023-04-27T15:18:12.878Z,4.18
2023-04-27T15:21:15.781Z,3.90
2023-04-27T15:24:18.490Z,2.78
2023-04-27T15:27:21.026Z,3.33
2023-04-27T15:30:24.008Z,5.10
2023-04-27T15:33:26.815Z,3.17
2023-04-27T15:36:29.354Z,3.58
2023-04-27T15:39:32.331Z,2.50
2023-04-27T15:42:35.135Z,4.03
2023-04-27T15:45:38.176Z,3.50
2023-04-27T15:48:40.944Z,2.75
2023-04-27T15:51:43.434Z,3.45
2023-04-27T15:54:46.144Z,2.40
2023-04-27T15:57:48.905Z,5.47
2023-04-27T16:00:51.505Z,2.70
2023-04-27T16:03:54.240Z,3.08
2023-04-27T16:06:56.911Z,3.50
2023-04-27T16:09:59.989Z,3.55
2023-04-27T16:13:02.799Z,2.20
2023-04-27T16:16:07.170Z,2.80
2023-04-27T16:19:10.261Z,3.22
2023-04-27T16:22:13.434Z,3.70
2023-04-27T16:25:16.075Z,2.45
2023-04-27T16:28:18.620Z,3.03
2023-04-27T16:31:22.673Z,3.17
2023-04-27T16:34:25.360Z,3.05
2023-04-27T16:37:27.816Z,3.60
2023-04-27T16:40:30.390Z,2.40
2023-04-27T16:43:33.480Z,6.20
2023-04-27T16:46:36.198Z,2.57
2023-04-27T16:49:38.821Z,1.80
2023-04-27T16:52:41.541Z,3.55
2023-04-27T16:55:44.149Z,4.75
2023-04-27T16:58:47.330Z,3.43
2023-04-27T17:01:49.886Z,2.60
2023-04-27T17:04:54.143Z,3.50
2023-04-27T17:07:56.637Z,2.65
2023-04-27T17:10:59.275Z,2.00
2023-04-27T17:14:01.841Z,4.17
2023-04-27T17:17:05.877Z,5.13
2023-04-27T17:20:09.616Z,3.72
2023-04-27T17:23:12.310Z,1.58
2023-04-27T17:26:19.755Z,3.67
2023-04-27T17:29:22.563Z,3.10
2023-04-27T17:32:25.159Z,3.53
2023-04-27T17:35:27.702Z,3.13
2023-04-27T17:38:30.955Z,2.63
2023-04-27T17:41:35.502Z,3.95
2023-04-27T17:44:41.184Z,3.73
2023-04-27T17:47:43.744Z,3.50
2023-04-27T17:50:46.422Z,2.22
2023-04-27T17:53:49.126Z,2.78
2023-04-27T17:56:51.864Z,3.70
2023-04-27T17:59:54.624Z,3.87
2023-04-27T18:02:57.422Z,6.03
2023-04-27T18:06:00.376Z,5.38
2023-04-27T18:09:03.432Z,2.63
2023-04-27T18:12:11.139Z,6.10
2023-04-27T18:15:14.136Z,11.63
2023-04-27T18:18:22.529Z,17.60
2023-04-27T18:21:28.654Z,21.73
2023-04-27T18:24:31.729Z,18.13
2023-04-27T18:27:34.389Z,26.15
2023-04-27T18:30:37.204Z,13.10
2023-04-27T18:33:39.966Z,14.30
2023-04-27T18:36:42.654Z,9.25
2023-04-27T18:39:45.458Z,19.52
2023-04-27T18:42:48.346Z,15.77
2023-04-27T18:45:51.573Z,14.93
2023-04-27T18:48:54.666Z,11.57
2023-04-27T18:51:58.796Z,8.35
2023-04-27T18:55:01.620Z,10.30
2023-04-27T18:58:04.192Z,13.93
2023-04-27T19:01:07.145Z,13.03
2023-04-27T19:04:10.661Z,14.90
2023-04-27T19:07:14.488Z,8.55
2023-04-27T19:10:17.232Z,12.13
2023-04-27T19:13:19.802Z,15.88
2023-04-27T19:16:23.516Z,10.43
2023-04-27T19:19:26.817Z,14.17
2023-04-27T19:22:34.222Z,13.20
2023-04-27T19:25:38.588Z,9.20
2023-04-27T19:28:41.260Z,8.73
2023-04-27T19:31:44.078Z,11.57
2023-04-27T19:34:47.009Z,11.33
2023-04-27T19:37:50.892Z,14.77
2023-04-27T19:40:53.432Z,11.88
2023-04-27T19:43:56.279Z,7.97
2023-04-27T19:46:59.228Z,5.00
2023-04-27T19:50:02.258Z,9.53
2023-04-27T19:53:04.857Z,7.25
2023-04-27T19:56:07.832Z,11.20
2023-04-27T19:59:11.007Z,13.40
2023-04-27T20:02:13.722Z,8.37
2023-04-27T20:05:16.423Z,10.97
2023-04-27T20:08:19.366Z,12.30
2023-04-27T20:11:22.359Z,13.63
2023-04-27T20:14:25.184Z,8.38
2023-04-27T20:17:27.714Z,9.50
2023-04-27T20:20:30.422Z,11.00
2023-04-27T20:23:32.907Z,15.57
2023-04-27T20:26:35.987Z,11.95
2023-04-27T20:29:39.116Z,13.90
2023-04-27T20:32:41.994Z,47.07
2023-04-27T20:35:46.775Z,10.97
2023-04-27T20:38:49.569Z,13.95
2023-04-27T20:41:52.245Z,10.75
2023-04-27T20:44:55.191Z,14.88
2023-04-27T20:47:58.587Z,16.73
2023-04-27T20:51:02.403Z,16.13
2023-04-27T20:54:05.364Z,15.35
2023-04-27T20:57:13.534Z,12.40
2023-04-27T21:00:18.773Z,13.55
2023-04-27T21:03:22.502Z,15.00
2023-04-27T21:06:25.386Z,12.93
2023-04-27T21:09:28.246Z,14.65
2023-04-27T21:12:31.039Z,11.43
2023-04-27T21:15:33.772Z,15.70
2023-04-27T21:18:36.641Z,15.60
2023-04-27T21:21:39.239Z,12.53
2023-04-27T21:24:42.001Z,12.55
2023-04-27T21:27:44.802Z,14.52
2023-04-27T21:30:47.479Z,15.90
2023-04-27T21:33:50.969Z,16.70
2023-04-27T21:36:53.755Z,14.67
2023-04-27T21:39:56.836Z,17.70
2023-04-27T21:42:59.958Z,14.80
2023-04-27T21:46:02.846Z,12.90
2023-04-27T21:49:06.220Z,21.90
2023-04-27T21:52:10.503Z,18.30
2023-04-27T21:55:13.303Z,26.35
2023-04-27T21:58:15.875Z,22.67
2023-04-27T22:01:19.196Z,23.88
2023-04-27T22:04:22.914Z,20.67
2023-04-27T22:07:26.695Z,22.33
2023-04-27T22:10:29.244Z,16.23
2023-04-27T22:13:31.837Z,20.05
2023-04-27T22:16:34.334Z,16.08
2023-04-27T22:19:36.905Z,20.90
2023-04-27T22:22:40.635Z,15.70
2023-04-27T22:25:43.380Z,18.80
2023-04-27T22:28:46.082Z,20.85
2023-04-27T22:31:48.717Z,19.95
2023-04-27T22:34:51.566Z,16.27
2023-04-27T22:38:00.850Z,13.73
2023-04-27T22:41:03.457Z,17.55
2023-04-27T22:44:06.390Z,16.88
2023-04-27T22:47:08.890Z,16.42
2023-04-27T22:50:12.368Z,15.33
2023-04-27T22:53:14.814Z,14.27
2023-04-27T22:56:17.456Z,18.48
2023-04-27T22:59:25.645Z,17.65
2023-04-27T23:02:28.293Z,17.52
2023-04-27T23:05:30.956Z,18.13
2023-04-27T23:08:33.531Z,16.33
2023-04-27T23:11:36.740Z,16.40
2023-04-27T23:14:41.805Z,14.27
2023-04-27T23:17:44.396Z,14.90
2023-04-27T23:20:47.073Z,14.37
2023-04-27T23:23:49.892Z,18.95
2023-04-27T23:26:52.393Z,15.85
2023-04-27T23:29:55.008Z,15.88
2023-04-27T23:32:57.606Z,11.93
2023-04-27T23:36:01.115Z,18.65
2023-04-27T23:39:04.273Z,21.40
2023-04-27T23:42:07.121Z,20.83
2023-04-27T23:45:10.591Z,23.17
2023-04-27T23:48:13.191Z,28.03
2023-04-27T23:51:16.399Z,19.10
2023-04-27T23:54:18.920Z,14.55
2023-04-27T23:57:21.397Z,11.25
